sensor_id;sensor_type;location;lat;lon;timestamp;pressure;altitude;pressure_sealevel;temperature;humidity
11198;BME280;5655;48.744;9.162;2023-02-17T00:00:07;96988.28;;;10.83;100.00
11198;BME280;5655;48.744;9.162;2023-02-17T00:02:34;96989.81;;;10.65;100.00
11198;BME280;5655;48.744;9.162;2023-02-17T00:04:59;96992.13;;;10.82;100.00
11198;BME280;5655;48.744;9.162;2023-02-17T00:07:25;96995.56;;;10.82;100.00
11198;BME280;5655;48.744;9.162;2023-02-17T00:09:56;96991.94;;;10.75;100.00
11198;BME280;5655;48.744;9.162;2023-02-17T00:12:21;96998.06;;;10.75;100.00
11198;BME280;5655;48.744;9.162;2023-02-17T00:14:46;96993.69;;;10.52;100.00
11198;BME280;5655;48.744;9.162;2023-02-17T00:17:11;96998.88;;;10.44;100.00
11198;BME280;5655;48.744;9.162;2023-02-17T00:19:37;97004.72;;;10.66;100.00
11198;BME280;5655;48.744;9.162;2023-02-17T00:22:02;96993.16;;;10.62;100.00
11198;BME280;5655;48.744;9.162;2023-02-17T00:24:29;96998.25;;;10.67;100.00
11198;BME280;5655;48.744;9.162;2023-02-17T00:26:55;96990.25;;;10.35;100.00
11198;BME280;5655;48.744;9.162;2023-02-17T00:29:20;96979.38;;;10.28;100.00
11198;BME280;5655;48.744;9.162;2023-02-17T00:31:46;96989.56;;;10.38;100.00
11198;BME280;5655;48.744;9.162;2023-02-17T00:34:12;96988.69;;;10.34;100.00
11198;BME280;5655;48.744;9.162;2023-02-17T00:36:38;96988.66;;;10.66;100.00
11198;BME280;5655;48.744;9.162;2023-02-17T00:39:05;96984.00;;;10.31;100.00
11198;BME280;5655;48.744;9.162;2023-02-17T00:41:30;96979.56;;;10.35;100.00
11198;BME280;5655;48.744;9.162;2023-02-17T00:43:56;96982.13;;;10.48;100.00
11198;BME280;5655;48.744;9.162;2023-02-17T00:46:22;96982.28;;;10.55;100.00
11198;BME280;5655;48.744;9.162;2023-02-17T00:48:48;96983.91;;;10.12;100.00
11198;BME280;5655;48.744;9.162;2023-02-17T00:51:14;96986.72;;;10.47;100.00
11198;BME280;5655;48.744;9.162;2023-02-17T00:53:40;96982.78;;;10.76;100.00
11198;BME280;5655;48.744;9.162;2023-02-17T00:56:06;96980.41;;;10.39;100.00
11198;BME280;5655;48.744;9.162;2023-02-17T00:58:32;96983.84;;;10.56;100.00
11198;BME280;5655;48.744;9.162;2023-02-17T01:00:57;96992.13;;;10.51;100.00
11198;BME280;5655;48.744;9.162;2023-02-17T01:03:23;96982.47;;;10.30;100.00
11198;BME280;5655;48.744;9.162;2023-02-17T01:05:48;96989.03;;;10.48;100.00
11198;BME280;5655;48.744;9.162;2023-02-17T01:08:15;96988.00;;;9.94;100.00
11198;BME280;5655;48.744;9.162;2023-02-17T01:10:44;96981.34;;;10.16;100.00
11198;BME280;5655;48.744;9.162;2023-02-17T01:13:11;96982.28;;;10.23;100.00
11198;BME280;5655;48.744;9.162;2023-02-17T01:15:38;96974.25;;;10.08;100.00
11198;BME280;5655;48.744;9.162;2023-02-17T01:18:03;96966.88;;;9.89;100.00
11198;BME280;5655;48.744;9.162;2023-02-17T01:20:29;96970.53;;;9.96;100.00
11198;BME280;5655;48.744;9.162;2023-02-17T01:22:54;96970.84;;;9.95;100.00
11198;BME280;5655;48.744;9.162;2023-02-17T01:25:19;96964.34;;;9.80;100.00
11198;BME280;5655;48.744;9.162;2023-02-17T01:27:45;96967.41;;;10.10;100.00
11198;BME280;5655;48.744;9.162;2023-02-17T01:30:11;96962.75;;;10.07;100.00
11198;BME280;5655;48.744;9.162;2023-02-17T01:32:37;96959.81;;;9.96;100.00
11198;BME280;5655;48.744;9.162;2023-02-17T01:35:02;96961.50;;;10.17;100.00
11198;BME280;5655;48.744;9.162;2023-02-17T01:37:28;96953.97;;;10.54;100.00
11198;BME280;5655;48.744;9.162;2023-02-17T01:39:53;96950.03;;;10.48;100.00
11198;BME280;5655;48.744;9.162;2023-02-17T01:42:19;96951.41;;;10.41;100.00
11198;BME280;5655;48.744;9.162;2023-02-17T01:47:41;96952.22;;;10.14;100.00
11198;BME280;5655;48.744;9.162;2023-02-17T01:50:08;96941.22;;;10.31;100.00
11198;BME280;5655;48.744;9.162;2023-02-17T01:52:33;96933.97;;;10.32;100.00
11198;BME280;5655;48.744;9.162;2023-02-17T01:55:03;96936.47;;;10.25;100.00
11198;BME280;5655;48.744;9.162;2023-02-17T01:57:31;96933.09;;;10.43;100.00
11198;BME280;5655;48.744;9.162;2023-02-17T01:59:59;96935.34;;;10.41;100.00
11198;BME280;5655;48.744;9.162;2023-02-17T02:02:25;96933.25;;;10.51;100.00
11198;BME280;5655;48.744;9.162;2023-02-17T02:04:54;96932.16;;;10.20;100.00
11198;BME280;5655;48.744;9.162;2023-02-17T02:07:25;96930.41;;;10.59;100.00
11198;BME280;5655;48.744;9.162;2023-02-17T02:09:54;96930.50;;;10.47;100.00
11198;BME280;5655;48.744;9.162;2023-02-17T02:12:24;96923.66;;;10.50;100.00
11198;BME280;5655;48.744;9.162;2023-02-17T02:14:50;96928.59;;;10.48;100.00
11198;BME280;5655;48.744;9.162;2023-02-17T02:22:47;96919.75;;;10.78;100.00
11198;BME280;5655;48.744;9.162;2023-02-17T02:33:51;96920.00;;;10.73;100.00
11198;BME280;5655;48.744;9.162;2023-02-17T02:36:28;96926.41;;;10.53;100.00
11198;BME280;5655;48.744;9.162;2023-02-17T02:39:02;96922.69;;;10.73;100.00
11198;BME280;5655;48.744;9.162;2023-02-17T02:41:35;96914.19;;;10.87;100.00
11198;BME280;5655;48.744;9.162;2023-02-17T02:44:10;96915.13;;;10.79;100.00
11198;BME280;5655;48.744;9.162;2023-02-17T02:46:37;96917.94;;;10.67;100.00
11198;BME280;5655;48.744;9.162;2023-02-17T02:49:03;96911.91;;;10.89;100.00
11198;BME280;5655;48.744;9.162;2023-02-17T02:51:38;96906.69;;;10.96;100.00
11198;BME280;5655;48.744;9.162;2023-02-17T02:54:14;96897.19;;;10.79;100.00
11198;BME280;5655;48.744;9.162;2023-02-17T02:57:07;96904.03;;;11.15;100.00
11198;BME280;5655;48.744;9.162;2023-02-17T03:02:30;96891.75;;;10.76;100.00
11198;BME280;5655;48.744;9.162;2023-02-17T03:08:14;96886.53;;;10.64;100.00
11198;BME280;5655;48.744;9.162;2023-02-17T03:10:48;96887.75;;;11.05;100.00
11198;BME280;5655;48.744;9.162;2023-02-17T03:13:16;96891.56;;;10.50;100.00
11198;BME280;5655;48.744;9.162;2023-02-17T03:15:42;96889.66;;;10.50;100.00
11198;BME280;5655;48.744;9.162;2023-02-17T03:18:08;96878.13;;;10.30;100.00
11198;BME280;5655;48.744;9.162;2023-02-17T03:20:36;96884.56;;;10.61;100.00
11198;BME280;5655;48.744;9.162;2023-02-17T03:23:04;96879.47;;;10.75;100.00
11198;BME280;5655;48.744;9.162;2023-02-17T03:25:30;96872.69;;;10.62;100.00
11198;BME280;5655;48.744;9.162;2023-02-17T03:27:55;96872.69;;;10.42;100.00
11198;BME280;5655;48.744;9.162;2023-02-17T03:30:21;96871.16;;;10.61;100.00
11198;BME280;5655;48.744;9.162;2023-02-17T03:32:46;96873.75;;;10.57;100.00
11198;BME280;5655;48.744;9.162;2023-02-17T03:35:11;96880.19;;;10.72;100.00
11198;BME280;5655;48.744;9.162;2023-02-17T03:37:37;96888.72;;;10.77;100.00
11198;BME280;5655;48.744;9.162;2023-02-17T03:40:03;96892.28;;;10.66;100.00
11198;BME280;5655;48.744;9.162;2023-02-17T03:42:28;96890.44;;;10.51;100.00
11198;BME280;5655;48.744;9.162;2023-02-17T03:44:54;96889.50;;;10.78;100.00
11198;BME280;5655;48.744;9.162;2023-02-17T03:47:19;96890.63;;;10.77;100.00
11198;BME280;5655;48.744;9.162;2023-02-17T03:49:44;96895.72;;;10.31;100.00
11198;BME280;5655;48.744;9.162;2023-02-17T03:52:10;96896.31;;;10.40;100.00
11198;BME280;5655;48.744;9.162;2023-02-17T03:54:35;96899.59;;;10.50;100.00
11198;BME280;5655;48.744;9.162;2023-02-17T03:57:00;96890.25;;;10.59;100.00
11198;BME280;5655;48.744;9.162;2023-02-17T03:59:26;96892.31;;;10.85;100.00
11198;BME280;5655;48.744;9.162;2023-02-17T04:01:52;96890.06;;;10.17;100.00
11198;BME280;5655;48.744;9.162;2023-02-17T04:04:17;96886.31;;;10.37;100.00
11198;BME280;5655;48.744;9.162;2023-02-17T04:06:42;96891.75;;;10.41;100.00
11198;BME280;5655;48.744;9.162;2023-02-17T04:09:08;96887.16;;;10.41;100.00
11198;BME280;5655;48.744;9.162;2023-02-17T04:11:33;96885.34;;;10.14;100.00
11198;BME280;5655;48.744;9.162;2023-02-17T04:13:58;96897.19;;;10.13;100.00
11198;BME280;5655;48.744;9.162;2023-02-17T04:16:24;96890.34;;;10.47;100.00
11198;BME280;5655;48.744;9.162;2023-02-17T04:18:49;96891.91;;;10.48;100.00
11198;BME280;5655;48.744;9.162;2023-02-17T04:21:14;96902.00;;;10.55;100.00
11198;BME280;5655;48.744;9.162;2023-02-17T04:23:40;96901.50;;;10.33;100.00
11198;BME280;5655;48.744;9.162;2023-02-17T04:26:06;96904.66;;;10.55;100.00
11198;BME280;5655;48.744;9.162;2023-02-17T04:28:31;96907.47;;;10.42;100.00
11198;BME280;5655;48.744;9.162;2023-02-17T04:30:58;96909.84;;;10.63;100.00
11198;BME280;5655;48.744;9.162;2023-02-17T04:33:24;96908.34;;;10.31;100.00
11198;BME280;5655;48.744;9.162;2023-02-17T04:35:49;96908.44;;;10.34;100.00
11198;BME280;5655;48.744;9.162;2023-02-17T04:38:14;96892.38;;;10.34;100.00
11198;BME280;5655;48.744;9.162;2023-02-17T04:40:40;96884.25;;;10.15;100.00
11198;BME280;5655;48.744;9.162;2023-02-17T04:43:05;96886.00;;;10.58;100.00
11198;BME280;5655;48.744;9.162;2023-02-17T04:45:33;96882.94;;;10.40;100.00
11198;BME280;5655;48.744;9.162;2023-02-17T04:47:58;96880.69;;;10.42;100.00
11198;BME280;5655;48.744;9.162;2023-02-17T04:50:24;96884.00;;;10.71;100.00
11198;BME280;5655;48.744;9.162;2023-02-17T04:52:49;96875.69;;;10.76;100.00
11198;BME280;5655;48.744;9.162;2023-02-17T04:55:14;96872.22;;;10.40;100.00
11198;BME280;5655;48.744;9.162;2023-02-17T04:57:40;96871.81;;;10.38;100.00
11198;BME280;5655;48.744;9.162;2023-02-17T05:00:05;96868.31;;;10.54;100.00
11198;BME280;5655;48.744;9.162;2023-02-17T05:02:31;96866.94;;;10.60;100.00
11198;BME280;5655;48.744;9.162;2023-02-17T05:04:57;96867.31;;;10.77;100.00
11198;BME280;5655;48.744;9.162;2023-02-17T05:07:22;96866.81;;;10.72;100.00
11198;BME280;5655;48.744;9.162;2023-02-17T05:09:48;96867.31;;;10.77;100.00
11198;BME280;5655;48.744;9.162;2023-02-17T05:12:13;96875.41;;;10.81;100.00
11198;BME280;5655;48.744;9.162;2023-02-17T05:14:39;96869.47;;;10.72;100.00
11198;BME280;5655;48.744;9.162;2023-02-17T05:17:04;96867.59;;;10.91;100.00
11198;BME280;5655;48.744;9.162;2023-02-17T05:19:29;96867.91;;;10.71;100.00
11198;BME280;5655;48.744;9.162;2023-02-17T05:21:55;96870.75;;;10.78;100.00
11198;BME280;5655;48.744;9.162;2023-02-17T05:24:20;96870.63;;;10.90;100.00
11198;BME280;5655;48.744;9.162;2023-02-17T05:26:45;96881.44;;;10.59;100.00
11198;BME280;5655;48.744;9.162;2023-02-17T05:29:11;96866.59;;;10.80;100.00
11198;BME280;5655;48.744;9.162;2023-02-17T05:31:36;96872.59;;;10.74;100.00
11198;BME280;5655;48.744;9.162;2023-02-17T05:34:02;96876.06;;;10.93;100.00
11198;BME280;5655;48.744;9.162;2023-02-17T05:36:27;96878.22;;;10.88;100.00
11198;BME280;5655;48.744;9.162;2023-02-17T05:38:52;96867.69;;;10.95;100.00
11198;BME280;5655;48.744;9.162;2023-02-17T05:41:18;96873.94;;;11.22;100.00
11198;BME280;5655;48.744;9.162;2023-02-17T05:43:43;96876.13;;;10.97;100.00
11198;BME280;5655;48.744;9.162;2023-02-17T05:46:09;96878.94;;;11.23;100.00
11198;BME280;5655;48.744;9.162;2023-02-17T05:48:34;96880.34;;;10.98;100.00
11198;BME280;5655;48.744;9.162;2023-02-17T05:51:00;96887.97;;;11.15;100.00
11198;BME280;5655;48.744;9.162;2023-02-17T05:53:25;96885.72;;;11.17;100.00
11198;BME280;5655;48.744;9.162;2023-02-17T05:55:51;96894.53;;;11.37;100.00
11198;BME280;5655;48.744;9.162;2023-02-17T05:58:16;96890.44;;;10.85;100.00
11198;BME280;5655;48.744;9.162;2023-02-17T06:00:41;96898.31;;;10.98;100.00
11198;BME280;5655;48.744;9.162;2023-02-17T06:03:07;96900.25;;;11.16;100.00
11198;BME280;5655;48.744;9.162;2023-02-17T06:05:32;96897.56;;;10.97;100.00
11198;BME280;5655;48.744;9.162;2023-02-17T06:07:57;96898.75;;;11.19;100.00
11198;BME280;5655;48.744;9.162;2023-02-17T06:10:23;96906.16;;;11.06;100.00
11198;BME280;5655;48.744;9.162;2023-02-17T06:12:48;96906.66;;;11.12;100.00
11198;BME280;5655;48.744;9.162;2023-02-17T06:15:14;96899.31;;;11.28;100.00
11198;BME280;5655;48.744;9.162;2023-02-17T06:17:39;96900.78;;;11.06;100.00
11198;BME280;5655;48.744;9.162;2023-02-17T06:20:06;96900.22;;;11.35;100.00
11198;BME280;5655;48.744;9.162;2023-02-17T06:22:32;96912.28;;;11.07;100.00
11198;BME280;5655;48.744;9.162;2023-02-17T06:24:57;96907.41;;;10.93;100.00
11198;BME280;5655;48.744;9.162;2023-02-17T06:27:22;96915.06;;;11.29;100.00
11198;BME280;5655;48.744;9.162;2023-02-17T06:29:48;96915.44;;;10.93;100.00
11198;BME280;5655;48.744;9.162;2023-02-17T06:32:13;96909.69;;;10.91;100.00
11198;BME280;5655;48.744;9.162;2023-02-17T06:34:38;96923.34;;;11.05;100.00
11198;BME280;5655;48.744;9.162;2023-02-17T06:37:04;96932.97;;;11.25;100.00
11198;BME280;5655;48.744;9.162;2023-02-17T06:39:29;96927.00;;;10.97;100.00
11198;BME280;5655;48.744;9.162;2023-02-17T06:41:55;96936.53;;;11.14;100.00
11198;BME280;5655;48.744;9.162;2023-02-17T06:44:20;96933.78;;;10.91;100.00
11198;BME280;5655;48.744;9.162;2023-02-17T06:46:45;96923.88;;;10.76;100.00
11198;BME280;5655;48.744;9.162;2023-02-17T06:49:11;96923.94;;;10.79;100.00
11198;BME280;5655;48.744;9.162;2023-02-17T06:51:37;96916.19;;;10.74;100.00
11198;BME280;5655;48.744;9.162;2023-02-17T06:54:02;96919.81;;;11.01;100.00
11198;BME280;5655;48.744;9.162;2023-02-17T06:56:28;96920.19;;;11.00;100.00
11198;BME280;5655;48.744;9.162;2023-02-17T06:58:53;96929.84;;;11.04;100.00
11198;BME280;5655;48.744;9.162;2023-02-17T07:01:20;96921.38;;;11.02;100.00
11198;BME280;5655;48.744;9.162;2023-02-17T07:03:46;96924.59;;;10.73;100.00
11198;BME280;5655;48.744;9.162;2023-02-17T07:06:12;96936.47;;;10.91;100.00
11198;BME280;5655;48.744;9.162;2023-02-17T07:08:38;96941.19;;;10.98;100.00
11198;BME280;5655;48.744;9.162;2023-02-17T07:11:08;96933.66;;;11.03;100.00
11198;BME280;5655;48.744;9.162;2023-02-17T07:13:33;96942.75;;;11.18;100.00
11198;BME280;5655;48.744;9.162;2023-02-17T07:15:59;96936.47;;;10.91;100.00
11198;BME280;5655;48.744;9.162;2023-02-17T07:18:25;96949.16;;;11.13;100.00
11198;BME280;5655;48.744;9.162;2023-02-17T07:20:50;96945.34;;;10.95;100.00
11198;BME280;5655;48.744;9.162;2023-02-17T07:23:15;96947.47;;;10.70;100.00
11198;BME280;5655;48.744;9.162;2023-02-17T07:25:41;96952.25;;;10.96;100.00
11198;BME280;5655;48.744;9.162;2023-02-17T07:28:06;96945.56;;;11.06;100.00
11198;BME280;5655;48.744;9.162;2023-02-17T07:30:36;96945.88;;;11.20;100.00
11198;BME280;5655;48.744;9.162;2023-02-17T07:33:02;96962.28;;;10.99;100.00
11198;BME280;5655;48.744;9.162;2023-02-17T07:35:27;96965.63;;;10.96;100.00
11198;BME280;5655;48.744;9.162;2023-02-17T07:37:56;96957.09;;;11.25;100.00
11198;BME280;5655;48.744;9.162;2023-02-17T07:40:21;96963.25;;;10.91;100.00
11198;BME280;5655;48.744;9.162;2023-02-17T07:42:46;96950.97;;;10.90;100.00
11198;BME280;5655;48.744;9.162;2023-02-17T07:45:11;96950.72;;;11.14;100.00
11198;BME280;5655;48.744;9.162;2023-02-17T07:47:37;96949.72;;;11.03;100.00
11198;BME280;5655;48.744;9.162;2023-02-17T07:50:02;96953.22;;;10.88;100.00
11198;BME280;5655;48.744;9.162;2023-02-17T07:52:28;96950.94;;;11.25;100.00
11198;BME280;5655;48.744;9.162;2023-02-17T07:54:53;96960.38;;;11.00;100.00
11198;BME280;5655;48.744;9.162;2023-02-17T07:57:18;96961.28;;;11.07;100.00
11198;BME280;5655;48.744;9.162;2023-02-17T07:59:45;96965.59;;;11.31;100.00
11198;BME280;5655;48.744;9.162;2023-02-17T08:02:11;96971.03;;;11.15;100.00
11198;BME280;5655;48.744;9.162;2023-02-17T08:04:36;96975.09;;;11.09;100.00
11198;BME280;5655;48.744;9.162;2023-02-17T08:07:01;96972.59;;;11.16;100.00
11198;BME280;5655;48.744;9.162;2023-02-17T08:09:27;96978.06;;;11.04;100.00
11198;BME280;5655;48.744;9.162;2023-02-17T08:12:15;96971.53;;;11.40;100.00
11198;BME280;5655;48.744;9.162;2023-02-17T08:14:59;96963.00;;;11.15;100.00
11198;BME280;5655;48.744;9.162;2023-02-17T08:17:26;96958.94;;;11.06;100.00
11198;BME280;5655;48.744;9.162;2023-02-17T08:19:51;96953.91;;;11.58;100.00
11198;BME280;5655;48.744;9.162;2023-02-17T08:22:16;96951.50;;;11.53;100.00
11198;BME280;5655;48.744;9.162;2023-02-17T08:24:42;96964.28;;;11.41;100.00
11198;BME280;5655;48.744;9.162;2023-02-17T08:27:07;96963.34;;;11.33;100.00
11198;BME280;5655;48.744;9.162;2023-02-17T08:29:32;96957.72;;;11.38;100.00
11198;BME280;5655;48.744;9.162;2023-02-17T08:31:58;96957.06;;;11.45;100.00
11198;BME280;5655;48.744;9.162;2023-02-17T08:34:23;96958.91;;;11.60;100.00
11198;BME280;5655;48.744;9.162;2023-02-17T08:36:48;96958.75;;;11.53;100.00
11198;BME280;5655;48.744;9.162;2023-02-17T08:39:15;96960.59;;;11.68;100.00
11198;BME280;5655;48.744;9.162;2023-02-17T08:41:44;96958.84;;;11.75;100.00
11198;BME280;5655;48.744;9.162;2023-02-17T08:44:16;96955.94;;;11.65;100.00
11198;BME280;5655;48.744;9.162;2023-02-17T08:46:42;96957.06;;;11.64;100.00
11198;BME280;5655;48.744;9.162;2023-02-17T08:49:08;96959.03;;;11.48;100.00
11198;BME280;5655;48.744;9.162;2023-02-17T08:51:33;96950.22;;;11.66;100.00
11198;BME280;5655;48.744;9.162;2023-02-17T08:54:00;96951.84;;;11.71;100.00
11198;BME280;5655;48.744;9.162;2023-02-17T08:56:27;96950.59;;;11.65;100.00
11198;BME280;5655;48.744;9.162;2023-02-17T08:58:53;96948.38;;;11.90;100.00
11198;BME280;5655;48.744;9.162;2023-02-17T09:01:19;96958.41;;;11.93;100.00
11198;BME280;5655;48.744;9.162;2023-02-17T09:03:46;96957.44;;;11.81;100.00
11198;BME280;5655;48.744;9.162;2023-02-17T09:06:12;96954.25;;;11.76;100.00
11198;BME280;5655;48.744;9.162;2023-02-17T09:08:38;96954.81;;;11.66;100.00
11198;BME280;5655;48.744;9.162;2023-02-17T09:11:06;96965.47;;;11.62;100.00
11198;BME280;5655;48.744;9.162;2023-02-17T09:13:31;96953.28;;;11.65;100.00
11198;BME280;5655;48.744;9.162;2023-02-17T09:15:57;96948.56;;;11.77;100.00
11198;BME280;5655;48.744;9.162;2023-02-17T09:18:23;96946.69;;;11.62;100.00
11198;BME280;5655;48.744;9.162;2023-02-17T09:20:48;96944.09;;;11.85;100.00
11198;BME280;5655;48.744;9.162;2023-02-17T09:23:14;96938.66;;;11.62;100.00
11198;BME280;5655;48.744;9.162;2023-02-17T09:25:40;96946.78;;;11.85;100.00
11198;BME280;5655;48.744;9.162;2023-02-17T09:28:06;96934.31;;;11.96;100.00
11198;BME280;5655;48.744;9.162;2023-02-17T09:30:32;96934.63;;;11.53;100.00
11198;BME280;5655;48.744;9.162;2023-02-17T09:32:58;96935.75;;;11.71;100.00
11198;BME280;5655;48.744;9.162;2023-02-17T09:35:24;96946.78;;;11.85;100.00
11198;BME280;5655;48.744;9.162;2023-02-17T09:37:50;96946.47;;;11.71;100.00
11198;BME280;5655;48.744;9.162;2023-02-17T09:40:30;96945.25;;;12.30;100.00
11198;BME280;5655;48.744;9.162;2023-02-17T09:42:57;96943.81;;;11.90;100.00
11198;BME280;5655;48.744;9.162;2023-02-17T09:45:31;96963.00;;;12.38;100.00
11198;BME280;5655;48.744;9.162;2023-02-17T09:48:02;96975.41;;;12.46;100.00
11198;BME280;5655;48.744;9.162;2023-02-17T09:50:42;96992.59;;;12.64;100.00
11198;BME280;5655;48.744;9.162;2023-02-17T09:55:52;96997.91;;;12.38;100.00
11198;BME280;5655;48.744;9.162;2023-02-17T09:58:42;96991.03;;;12.63;100.00
11198;BME280;5655;48.744;9.162;2023-02-17T10:01:17;96990.78;;;12.71;100.00
11198;BME280;5655;48.744;9.162;2023-02-17T10:03:49;96991.66;;;12.79;100.00
11198;BME280;5655;48.744;9.162;2023-02-17T10:06:20;97005.91;;;12.83;100.00
11198;BME280;5655;48.744;9.162;2023-02-17T10:08:59;97005.91;;;12.83;100.00
11198;BME280;5655;48.744;9.162;2023-02-17T10:14:16;97022.88;;;13.40;100.00
11198;BME280;5655;48.744;9.162;2023-02-17T10:16:48;97011.69;;;13.38;100.00
11198;BME280;5655;48.744;9.162;2023-02-17T10:19:23;97013.13;;;13.58;100.00
11198;BME280;5655;48.744;9.162;2023-02-17T10:22:17;97009.69;;;13.31;100.00
11198;BME280;5655;48.744;9.162;2023-02-17T10:24:42;97025.19;;;12.89;100.00
11198;BME280;5655;48.744;9.162;2023-02-17T10:32:27;96997.25;;;12.93;100.00
11198;BME280;5655;48.744;9.162;2023-02-17T10:35:06;97001.16;;;13.26;100.00
11198;BME280;5655;48.744;9.162;2023-02-17T10:38:05;97003.19;;;13.62;100.00
11198;BME280;5655;48.744;9.162;2023-02-17T10:40:37;97002.44;;;13.35;100.00
11198;BME280;5655;48.744;9.162;2023-02-17T10:43:04;97010.44;;;13.58;100.00
11198;BME280;5655;48.744;9.162;2023-02-17T10:45:44;96988.03;;;13.80;100.00
11198;BME280;5655;48.744;9.162;2023-02-17T10:50:59;96974.22;;;13.85;100.00
11198;BME280;5655;48.744;9.162;2023-02-17T10:53:29;96982.16;;;14.08;100.00
11198;BME280;5655;48.744;9.162;2023-02-17T10:56:15;96975.69;;;14.16;100.00
11198;BME280;5655;48.744;9.162;2023-02-17T10:58:53;96972.16;;;14.08;100.00
11198;BME280;5655;48.744;9.162;2023-02-17T11:01:20;96973.56;;;13.95;100.00
11198;BME280;5655;48.744;9.162;2023-02-17T11:04:00;96973.31;;;14.11;100.00
11198;BME280;5655;48.744;9.162;2023-02-17T11:06:26;96979.81;;;14.06;100.00
11198;BME280;5655;48.744;9.162;2023-02-17T11:08:59;96974.13;;;14.52;100.00
11198;BME280;5655;48.744;9.162;2023-02-17T11:11:27;96975.59;;;14.46;100.00
11198;BME280;5655;48.744;9.162;2023-02-17T11:18:58;96966.84;;;14.16;100.00
11198;BME280;5655;48.744;9.162;2023-02-17T11:21:27;96969.88;;;14.54;100.00
11198;BME280;5655;48.744;9.162;2023-02-17T11:24:00;96977.75;;;14.77;100.00
11198;BME280;5655;48.744;9.162;2023-02-17T11:26:31;96973.84;;;14.71;100.00
11198;BME280;5655;48.744;9.162;2023-02-17T11:29:14;96956.66;;;14.90;100.00
11198;BME280;5655;48.744;9.162;2023-02-17T11:31:41;96962.69;;;14.25;100.00
11198;BME280;5655;48.744;9.162;2023-02-17T11:34:11;96961.25;;;14.82;100.00
11198;BME280;5655;48.744;9.162;2023-02-17T11:36:36;96956.75;;;14.05;100.00
11198;BME280;5655;48.744;9.162;2023-02-17T11:39:18;96943.34;;;14.53;100.00
11198;BME280;5655;48.744;9.162;2023-02-17T11:41:44;96946.22;;;14.34;100.00
11198;BME280;5655;48.744;9.162;2023-02-17T11:44:10;96940.53;;;13.98;100.00
11198;BME280;5655;48.744;9.162;2023-02-17T11:46:45;96944.63;;;14.26;100.00
11198;BME280;5655;48.744;9.162;2023-02-17T11:52:16;96936.78;;;14.54;100.00
11198;BME280;5655;48.744;9.162;2023-02-17T11:55:06;96945.78;;;14.28;100.00
11198;BME280;5655;48.744;9.162;2023-02-17T11:57:40;96946.50;;;14.62;100.00
11198;BME280;5655;48.744;9.162;2023-02-17T12:02:57;96958.34;;;14.10;100.00
11198;BME280;5655;48.744;9.162;2023-02-17T12:05:55;96966.16;;;14.26;100.00
11198;BME280;5655;48.744;9.162;2023-02-17T12:13:54;96969.13;;;14.14;100.00
11198;BME280;5655;48.744;9.162;2023-02-17T12:19:29;96972.66;;;14.21;100.00
11198;BME280;5655;48.744;9.162;2023-02-17T12:22:08;96973.16;;;14.34;100.00
11198;BME280;5655;48.744;9.162;2023-02-17T12:33:17;96957.09;;;14.41;100.00
11198;BME280;5655;48.744;9.162;2023-02-17T12:35:50;96956.75;;;14.05;100.00
11198;BME280;5655;48.744;9.162;2023-02-17T12:38:47;96955.06;;;14.31;100.00
11198;BME280;5655;48.744;9.162;2023-02-17T12:41:24;96942.22;;;14.14;100.00
11198;BME280;5655;48.744;9.162;2023-02-17T12:43:55;96938.44;;;13.81;100.00
11198;BME280;5655;48.744;9.162;2023-02-17T12:46:28;96936.06;;;14.17;100.00
11198;BME280;5655;48.744;9.162;2023-02-17T12:49:02;96929.25;;;14.30;100.00
11198;BME280;5655;48.744;9.162;2023-02-17T12:51:32;96934.41;;;14.01;100.00
11198;BME280;5655;48.744;9.162;2023-02-17T12:54:09;96933.28;;;14.50;100.00
11198;BME280;5655;48.744;9.162;2023-02-17T12:57:03;96938.72;;;14.53;100.00
11198;BME280;5655;48.744;9.162;2023-02-17T12:59:45;96938.28;;;14.44;100.00
11198;BME280;5655;48.744;9.162;2023-02-17T13:02:19;96938.69;;;14.50;100.00
11198;BME280;5655;48.744;9.162;2023-02-17T13:04:49;96927.06;;;14.39;100.00
11198;BME280;5655;48.744;9.162;2023-02-17T13:10:39;96933.22;;;14.39;100.00
11198;BME280;5655;48.744;9.162;2023-02-17T13:15:43;96930.22;;;14.48;100.00
11198;BME280;5655;48.744;9.162;2023-02-17T13:18:30;96949.56;;;14.64;100.00
11198;BME280;5655;48.744;9.162;2023-02-17T13:20:58;96937.81;;;14.35;100.00
11198;BME280;5655;48.744;9.162;2023-02-17T13:23:34;96926.50;;;14.19;100.00
11198;BME280;5655;48.744;9.162;2023-02-17T13:26:06;96930.50;;;14.36;100.00
11198;BME280;5655;48.744;9.162;2023-02-17T13:28:36;96941.38;;;14.50;100.00
11198;BME280;5655;48.744;9.162;2023-02-17T13:31:15;96930.97;;;14.45;100.00
11198;BME280;5655;48.744;9.162;2023-02-17T13:33:46;96934.97;;;14.69;100.00
11198;BME280;5655;48.744;9.162;2023-02-17T13:36:21;96932.88;;;14.41;100.00
11198;BME280;5655;48.744;9.162;2023-02-17T13:39:04;96935.63;;;14.51;100.00
11198;BME280;5655;48.744;9.162;2023-02-17T13:41:43;96929.56;;;14.65;100.00
11198;BME280;5655;48.744;9.162;2023-02-17T13:44:28;96932.88;;;15.03;100.00
11198;BME280;5655;48.744;9.162;2023-02-17T13:46:58;96930.59;;;15.12;100.00
11198;BME280;5655;48.744;9.162;2023-02-17T13:49:26;96934.22;;;15.44;100.00
11198;BME280;5655;48.744;9.162;2023-02-17T13:51:53;96936.84;;;15.30;100.00
11198;BME280;5655;48.744;9.162;2023-02-17T13:54:21;96930.06;;;15.57;100.00
11198;BME280;5655;48.744;9.162;2023-02-17T13:56:51;96930.06;;;15.57;100.00
11198;BME280;5655;48.744;9.162;2023-02-17T13:59:24;96925.03;;;15.59;100.00
11198;BME280;5655;48.744;9.162;2023-02-17T14:01:50;96933.81;;;15.45;100.00
11198;BME280;5655;48.744;9.162;2023-02-17T14:04:26;96933.72;;;15.17;100.00
11198;BME280;5655;48.744;9.162;2023-02-17T14:06:52;96923.72;;;15.18;100.00
11198;BME280;5655;48.744;9.162;2023-02-17T14:09:31;96920.63;;;15.19;100.00
11198;BME280;5655;48.744;9.162;2023-02-17T14:11:58;96924.41;;;15.01;100.00
11198;BME280;5655;48.744;9.162;2023-02-17T14:14:28;96910.53;;;15.02;100.00
11198;BME280;5655;48.744;9.162;2023-02-17T14:16:58;96914.31;;;14.90;100.00